sensor_id;sensor_type;location;lat;lon;timestamp;P1;durP1;ratioP1;P2;durP2;ratioP2
18881;SDS011;9573;50.948;11.600;2023-08-06T00:00:05;6.10;;;2.60;;
18881;SDS011;9573;50.948;11.600;2023-08-06T00:02:33;3.40;;;2.50;;
18881;SDS011;9573;50.948;11.600;2023-08-06T00:05:00;3.80;;;2.30;;
18881;SDS011;9573;50.948;11.600;2023-08-06T00:07:28;6.00;;;2.60;;
18881;SDS011;9573;50.948;11.600;2023-08-06T00:09:55;4.33;;;2.57;;
18881;SDS011;9573;50.948;11.600;2023-08-06T00:12:22;5.60;;;2.43;;
18881;SDS011;9573;50.948;11.600;2023-08-06T00:14:51;6.90;;;2.40;;
18881;SDS011;9573;50.948;11.600;2023-08-06T00:17:18;4.17;;;2.30;;
18881;SDS011;9573;50.948;11.600;2023-08-06T00:19:46;4.90;;;2.20;;
18881;SDS011;9573;50.948;11.600;2023-08-06T00:22:13;3.47;;;2.40;;
18881;SDS011;9573;50.948;11.600;2023-08-06T00:24:40;3.43;;;2.07;;
18881;SDS011;9573;50.948;11.600;2023-08-06T00:27:07;5.93;;;2.60;;
18881;SDS011;9573;50.948;11.600;2023-08-06T00:29:34;4.20;;;2.40;;
18881;SDS011;9573;50.948;11.600;2023-08-06T00:32:03;2.87;;;2.20;;
18881;SDS011;9573;50.948;11.600;2023-08-06T00:34:30;5.37;;;2.40;;
18881;SDS011;9573;50.948;11.600;2023-08-06T00:36:57;4.53;;;2.40;;
18881;SDS011;9573;50.948;11.600;2023-08-06T00:39:25;3.80;;;2.40;;
18881;SDS011;9573;50.948;11.600;2023-08-06T00:41:52;2.47;;;2.00;;
18881;SDS011;9573;50.948;11.600;2023-08-06T00:44:19;5.50;;;2.60;;
18881;SDS011;9573;50.948;11.600;2023-08-06T00:46:46;4.83;;;2.30;;
18881;SDS011;9573;50.948;11.600;2023-08-06T00:49:15;2.50;;;2.30;;
18881;SDS011;9573;50.948;11.600;2023-08-06T00:51:42;6.33;;;2.67;;
18881;SDS011;9573;50.948;11.600;2023-08-06T00:54:10;4.57;;;2.60;;
18881;SDS011;9573;50.948;11.600;2023-08-06T00:56:37;4.77;;;2.50;;
18881;SDS011;9573;50.948;11.600;2023-08-06T00:59:06;5.63;;;2.70;;
18881;SDS011;9573;50.948;11.600;2023-08-06T01:01:33;4.63;;;2.70;;
18881;SDS011;9573;50.948;11.600;2023-08-06T01:04:00;7.93;;;2.70;;
18881;SDS011;9573;50.948;11.600;2023-08-06T01:06:32;6.43;;;2.60;;
18881;SDS011;9573;50.948;11.600;2023-08-06T01:09:07;4.13;;;2.50;;
18881;SDS011;9573;50.948;11.600;2023-08-06T01:11:46;6.00;;;2.80;;
18881;SDS011;9573;50.948;11.600;2023-08-06T01:14:32;3.43;;;2.60;;
18881;SDS011;9573;50.948;11.600;2023-08-06T01:17:06;4.00;;;2.47;;
18881;SDS011;9573;50.948;11.600;2023-08-06T01:19:35;4.10;;;2.40;;
18881;SDS011;9573;50.948;11.600;2023-08-06T01:22:04;3.67;;;2.60;;
18881;SDS011;9573;50.948;11.600;2023-08-06T01:24:31;5.27;;;2.87;;
18881;SDS011;9573;50.948;11.600;2023-08-06T01:26:59;4.50;;;2.70;;
18881;SDS011;9573;50.948;11.600;2023-08-06T01:29:34;5.97;;;2.67;;
18881;SDS011;9573;50.948;11.600;2023-08-06T01:32:06;4.37;;;2.60;;
18881;SDS011;9573;50.948;11.600;2023-08-06T01:34:37;5.73;;;2.87;;
18881;SDS011;9573;50.948;11.600;2023-08-06T01:37:08;6.63;;;2.67;;
18881;SDS011;9573;50.948;11.600;2023-08-06T01:39:36;5.30;;;2.73;;
18881;SDS011;9573;50.948;11.600;2023-08-06T01:42:03;6.87;;;2.93;;
18881;SDS011;9573;50.948;11.600;2023-08-06T01:44:31;5.70;;;2.60;;
18881;SDS011;9573;50.948;11.600;2023-08-06T01:46:58;8.87;;;3.10;;
18881;SDS011;9573;50.948;11.600;2023-08-06T01:49:25;3.70;;;2.70;;
18881;SDS011;9573;50.948;11.600;2023-08-06T01:51:52;5.90;;;3.00;;
18881;SDS011;9573;50.948;11.600;2023-08-06T01:54:21;5.40;;;2.93;;
18881;SDS011;9573;50.948;11.600;2023-08-06T01:56:48;4.47;;;2.73;;
18881;SDS011;9573;50.948;11.600;2023-08-06T01:59:15;7.10;;;2.97;;
18881;SDS011;9573;50.948;11.600;2023-08-06T02:01:42;8.53;;;3.07;;
18881;SDS011;9573;50.948;11.600;2023-08-06T02:04:09;6.73;;;3.10;;
18881;SDS011;9573;50.948;11.600;2023-08-06T02:06:37;4.73;;;2.93;;
18881;SDS011;9573;50.948;11.600;2023-08-06T02:09:04;6.80;;;3.23;;
18881;SDS011;9573;50.948;11.600;2023-08-06T02:11:32;7.60;;;3.37;;
18881;SDS011;9573;50.948;11.600;2023-08-06T02:13:59;9.23;;;3.33;;
18881;SDS011;9573;50.948;11.600;2023-08-06T02:16:26;9.23;;;3.73;;
18881;SDS011;9573;50.948;11.600;2023-08-06T02:18:53;7.73;;;3.37;;
18881;SDS011;9573;50.948;11.600;2023-08-06T02:21:20;5.90;;;3.33;;
18881;SDS011;9573;50.948;11.600;2023-08-06T02:23:48;5.87;;;3.40;;
18881;SDS011;9573;50.948;11.600;2023-08-06T02:26:15;9.97;;;3.60;;
18881;SDS011;9573;50.948;11.600;2023-08-06T02:28:43;8.87;;;3.30;;
18881;SDS011;9573;50.948;11.600;2023-08-06T02:31:10;8.70;;;3.13;;
18881;SDS011;9573;50.948;11.600;2023-08-06T02:33:37;7.37;;;3.17;;
18881;SDS011;9573;50.948;11.600;2023-08-06T02:36:04;6.93;;;2.97;;
18881;SDS011;9573;50.948;11.600;2023-08-06T02:38:32;5.73;;;3.27;;
18881;SDS011;9573;50.948;11.600;2023-08-06T02:41:01;8.77;;;3.40;;
18881;SDS011;9573;50.948;11.600;2023-08-06T02:43:29;5.90;;;3.37;;
18881;SDS011;9573;50.948;11.600;2023-08-06T02:45:58;8.53;;;3.50;;
18881;SDS011;9573;50.948;11.600;2023-08-06T02:48:26;8.10;;;3.60;;
18881;SDS011;9573;50.948;11.600;2023-08-06T02:50:56;7.53;;;3.30;;
18881;SDS011;9573;50.948;11.600;2023-08-06T02:53:25;7.57;;;3.33;;
18881;SDS011;9573;50.948;11.600;2023-08-06T02:55:52;7.07;;;3.50;;
18881;SDS011;9573;50.948;11.600;2023-08-06T02:58:19;8.33;;;3.30;;
18881;SDS011;9573;50.948;11.600;2023-08-06T03:00:59;9.70;;;3.60;;
18881;SDS011;9573;50.948;11.600;2023-08-06T03:03:28;9.90;;;3.50;;
18881;SDS011;9573;50.948;11.600;2023-08-06T03:05:56;9.43;;;3.30;;
18881;SDS011;9573;50.948;11.600;2023-08-06T03:08:24;7.90;;;3.73;;
18881;SDS011;9573;50.948;11.600;2023-08-06T03:10:51;5.93;;;3.30;;
18881;SDS011;9573;50.948;11.600;2023-08-06T03:13:19;7.83;;;3.27;;
18881;SDS011;9573;50.948;11.600;2023-08-06T03:15:53;8.03;;;3.27;;
18881;SDS011;9573;50.948;11.600;2023-08-06T03:18:21;5.80;;;3.33;;
18881;SDS011;9573;50.948;11.600;2023-08-06T03:20:50;7.20;;;3.47;;
18881;SDS011;9573;50.948;11.600;2023-08-06T03:23:18;9.33;;;3.47;;
18881;SDS011;9573;50.948;11.600;2023-08-06T03:25:45;7.80;;;3.20;;
18881;SDS011;9573;50.948;11.600;2023-08-06T03:28:13;11.17;;;3.50;;
18881;SDS011;9573;50.948;11.600;2023-08-06T03:30:40;8.50;;;3.30;;
18881;SDS011;9573;50.948;11.600;2023-08-06T03:33:07;5.90;;;3.30;;
18881;SDS011;9573;50.948;11.600;2023-08-06T03:35:35;8.53;;;3.30;;
18881;SDS011;9573;50.948;11.600;2023-08-06T03:38:03;6.20;;;3.40;;
18881;SDS011;9573;50.948;11.600;2023-08-06T03:40:30;10.67;;;3.40;;
18881;SDS011;9573;50.948;11.600;2023-08-06T03:42:58;7.00;;;3.40;;
18881;SDS011;9573;50.948;11.600;2023-08-06T03:45:25;6.97;;;3.17;;
18881;SDS011;9573;50.948;11.600;2023-08-06T03:47:52;8.90;;;3.37;;
18881;SDS011;9573;50.948;11.600;2023-08-06T03:50:19;8.97;;;3.17;;
18881;SDS011;9573;50.948;11.600;2023-08-06T03:52:47;7.37;;;2.87;;
18881;SDS011;9573;50.948;11.600;2023-08-06T03:55:15;6.43;;;3.17;;
18881;SDS011;9573;50.948;11.600;2023-08-06T03:57:42;6.43;;;3.00;;
18881;SDS011;9573;50.948;11.600;2023-08-06T04:00:09;7.37;;;3.40;;
18881;SDS011;9573;50.948;11.600;2023-08-06T04:02:37;6.30;;;3.03;;
18881;SDS011;9573;50.948;11.600;2023-08-06T04:05:04;8.13;;;3.40;;
18881;SDS011;9573;50.948;11.600;2023-08-06T04:07:32;6.73;;;3.40;;
18881;SDS011;9573;50.948;11.600;2023-08-06T04:10:01;6.37;;;2.90;;
18881;SDS011;9573;50.948;11.600;2023-08-06T04:12:31;6.10;;;3.20;;
18881;SDS011;9573;50.948;11.600;2023-08-06T04:15:01;9.10;;;3.30;;
18881;SDS011;9573;50.948;11.600;2023-08-06T04:17:29;7.90;;;3.17;;
18881;SDS011;9573;50.948;11.600;2023-08-06T04:19:56;8.97;;;3.70;;
18881;SDS011;9573;50.948;11.600;2023-08-06T04:22:24;12.03;;;3.70;;
18881;SDS011;9573;50.948;11.600;2023-08-06T04:24:51;7.27;;;3.23;;
18881;SDS011;9573;50.948;11.600;2023-08-06T04:27:20;8.50;;;3.97;;
18881;SDS011;9573;50.948;11.600;2023-08-06T04:29:47;6.37;;;3.40;;
18881;SDS011;9573;50.948;11.600;2023-08-06T04:32:14;6.33;;;3.07;;
18881;SDS011;9573;50.948;11.600;2023-08-06T04:34:42;18.00;;;7.17;;
18881;SDS011;9573;50.948;11.600;2023-08-06T04:37:09;8.23;;;3.57;;
18881;SDS011;9573;50.948;11.600;2023-08-06T04:39:36;14.50;;;3.50;;
18881;SDS011;9573;50.948;11.600;2023-08-06T04:42:04;10.73;;;3.90;;
18881;SDS011;9573;50.948;11.600;2023-08-06T04:44:33;8.77;;;3.40;;
18881;SDS011;9573;50.948;11.600;2023-08-06T04:47:00;6.33;;;3.10;;
18881;SDS011;9573;50.948;11.600;2023-08-06T04:49:28;8.63;;;3.50;;
18881;SDS011;9573;50.948;11.600;2023-08-06T04:51:55;6.27;;;3.57;;
18881;SDS011;9573;50.948;11.600;2023-08-06T04:54:22;7.60;;;3.57;;
18881;SDS011;9573;50.948;11.600;2023-08-06T04:56:49;11.37;;;3.80;;
18881;SDS011;9573;50.948;11.600;2023-08-06T04:59:16;7.57;;;3.50;;
18881;SDS011;9573;50.948;11.600;2023-08-06T05:01:45;6.77;;;3.60;;
18881;SDS011;9573;50.948;11.600;2023-08-06T05:04:12;7.37;;;3.60;;
18881;SDS011;9573;50.948;11.600;2023-08-06T05:06:39;6.57;;;3.57;;
18881;SDS011;9573;50.948;11.600;2023-08-06T05:09:06;7.10;;;3.50;;
18881;SDS011;9573;50.948;11.600;2023-08-06T05:11:33;11.43;;;3.90;;
18881;SDS011;9573;50.948;11.600;2023-08-06T05:14:00;9.43;;;3.60;;
18881;SDS011;9573;50.948;11.600;2023-08-06T05:16:28;10.00;;;3.50;;
18881;SDS011;9573;50.948;11.600;2023-08-06T05:18:56;7.37;;;3.60;;
18881;SDS011;9573;50.948;11.600;2023-08-06T05:21:23;13.83;;;4.50;;
18881;SDS011;9573;50.948;11.600;2023-08-06T05:23:51;6.70;;;3.57;;
18881;SDS011;9573;50.948;11.600;2023-08-06T05:26:18;9.50;;;4.00;;
18881;SDS011;9573;50.948;11.600;2023-08-06T05:28:45;8.57;;;3.63;;
18881;SDS011;9573;50.948;11.600;2023-08-06T05:31:12;11.50;;;3.50;;
18881;SDS011;9573;50.948;11.600;2023-08-06T05:33:39;7.87;;;4.07;;
18881;SDS011;9573;50.948;11.600;2023-08-06T05:36:08;14.00;;;5.50;;
18881;SDS011;9573;50.948;11.600;2023-08-06T05:38:35;8.00;;;3.60;;
18881;SDS011;9573;50.948;11.600;2023-08-06T05:41:02;11.33;;;4.67;;
18881;SDS011;9573;50.948;11.600;2023-08-06T05:43:29;7.67;;;3.37;;
18881;SDS011;9573;50.948;11.600;2023-08-06T05:45:57;17.07;;;6.60;;
18881;SDS011;9573;50.948;11.600;2023-08-06T05:48:24;13.57;;;4.57;;
18881;SDS011;9573;50.948;11.600;2023-08-06T05:50:53;9.70;;;4.73;;
18881;SDS011;9573;50.948;11.600;2023-08-06T05:53:21;11.87;;;4.33;;
18881;SDS011;9573;50.948;11.600;2023-08-06T05:55:48;10.30;;;3.67;;
18881;SDS011;9573;50.948;11.600;2023-08-06T05:58:16;7.73;;;3.60;;
18881;SDS011;9573;50.948;11.600;2023-08-06T06:00:45;8.53;;;4.30;;
18881;SDS011;9573;50.948;11.600;2023-08-06T06:03:12;10.47;;;4.17;;
18881;SDS011;9573;50.948;11.600;2023-08-06T06:05:39;9.93;;;4.00;;
18881;SDS011;9573;50.948;11.600;2023-08-06T06:08:06;6.60;;;3.60;;
18881;SDS011;9573;50.948;11.600;2023-08-06T06:10:35;8.60;;;3.83;;
18881;SDS011;9573;50.948;11.600;2023-08-06T06:13:02;9.97;;;3.50;;
18881;SDS011;9573;50.948;11.600;2023-08-06T06:15:29;9.17;;;4.10;;
18881;SDS011;9573;50.948;11.600;2023-08-06T06:17:56;8.50;;;3.60;;
18881;SDS011;9573;50.948;11.600;2023-08-06T06:20:24;6.13;;;3.30;;
18881;SDS011;9573;50.948;11.600;2023-08-06T06:22:51;7.67;;;3.57;;
18881;SDS011;9573;50.948;11.600;2023-08-06T06:25:18;9.13;;;3.67;;
18881;SDS011;9573;50.948;11.600;2023-08-06T06:27:47;10.43;;;3.90;;
18881;SDS011;9573;50.948;11.600;2023-08-06T06:30:14;9.87;;;3.67;;
18881;SDS011;9573;50.948;11.600;2023-08-06T06:32:42;7.97;;;3.67;;
18881;SDS011;9573;50.948;11.600;2023-08-06T06:35:09;11.77;;;3.50;;
18881;SDS011;9573;50.948;11.600;2023-08-06T06:37:37;8.40;;;3.70;;
18881;SDS011;9573;50.948;11.600;2023-08-06T06:40:04;9.53;;;3.80;;
18881;SDS011;9573;50.948;11.600;2023-08-06T06:42:33;9.87;;;3.53;;
18881;SDS011;9573;50.948;11.600;2023-08-06T06:45:01;6.77;;;3.40;;
18881;SDS011;9573;50.948;11.600;2023-08-06T06:47:29;7.87;;;3.37;;
18881;SDS011;9573;50.948;11.600;2023-08-06T06:50:04;6.70;;;3.20;;
18881;SDS011;9573;50.948;11.600;2023-08-06T06:52:38;6.93;;;3.30;;
18881;SDS011;9573;50.948;11.600;2023-08-06T06:55:08;7.97;;;3.47;;
18881;SDS011;9573;50.948;11.600;2023-08-06T06:57:38;7.90;;;3.77;;
18881;SDS011;9573;50.948;11.600;2023-08-06T07:00:07;7.43;;;3.80;;
18881;SDS011;9573;50.948;11.600;2023-08-06T07:02:41;6.53;;;3.60;;
18881;SDS011;9573;50.948;11.600;2023-08-06T07:05:08;7.87;;;3.80;;
18881;SDS011;9573;50.948;11.600;2023-08-06T07:07:35;7.70;;;3.60;;
18881;SDS011;9573;50.948;11.600;2023-08-06T07:10:03;7.63;;;4.03;;
18881;SDS011;9573;50.948;11.600;2023-08-06T07:12:35;8.50;;;4.17;;
18881;SDS011;9573;50.948;11.600;2023-08-06T07:15:09;8.73;;;4.20;;
18881;SDS011;9573;50.948;11.600;2023-08-06T07:17:37;9.03;;;3.53;;
18881;SDS011;9573;50.948;11.600;2023-08-06T07:20:06;7.97;;;3.67;;
18881;SDS011;9573;50.948;11.600;2023-08-06T07:22:34;6.90;;;3.53;;
18881;SDS011;9573;50.948;11.600;2023-08-06T07:25:01;9.87;;;3.87;;
18881;SDS011;9573;50.948;11.600;2023-08-06T07:27:28;12.93;;;4.03;;
18881;SDS011;9573;50.948;11.600;2023-08-06T07:29:56;8.17;;;3.67;;
18881;SDS011;9573;50.948;11.600;2023-08-06T07:32:25;9.20;;;3.53;;
18881;SDS011;9573;50.948;11.600;2023-08-06T07:34:53;7.97;;;3.50;;
18881;SDS011;9573;50.948;11.600;2023-08-06T07:37:24;5.17;;;3.10;;
18881;SDS011;9573;50.948;11.600;2023-08-06T07:39:53;6.40;;;3.10;;
18881;SDS011;9573;50.948;11.600;2023-08-06T07:42:20;8.47;;;3.50;;
18881;SDS011;9573;50.948;11.600;2023-08-06T07:44:50;8.23;;;3.60;;
18881;SDS011;9573;50.948;11.600;2023-08-06T07:47:18;11.47;;;3.70;;
18881;SDS011;9573;50.948;11.600;2023-08-06T07:49:47;8.63;;;3.93;;
18881;SDS011;9573;50.948;11.600;2023-08-06T07:52:14;9.57;;;3.50;;
18881;SDS011;9573;50.948;11.600;2023-08-06T07:54:42;7.63;;;3.50;;
18881;SDS011;9573;50.948;11.600;2023-08-06T07:57:09;8.03;;;3.30;;
18881;SDS011;9573;50.948;11.600;2023-08-06T07:59:36;8.10;;;3.57;;
18881;SDS011;9573;50.948;11.600;2023-08-06T08:02:04;6.83;;;3.47;;
18881;SDS011;9573;50.948;11.600;2023-08-06T08:04:32;7.53;;;3.20;;
18881;SDS011;9573;50.948;11.600;2023-08-06T08:07:01;5.53;;;3.07;;
18881;SDS011;9573;50.948;11.600;2023-08-06T08:09:28;5.10;;;3.20;;
18881;SDS011;9573;50.948;11.600;2023-08-06T08:11:55;8.13;;;3.17;;
18881;SDS011;9573;50.948;11.600;2023-08-06T08:14:24;6.50;;;3.00;;
18881;SDS011;9573;50.948;11.600;2023-08-06T08:16:51;9.57;;;3.20;;
18881;SDS011;9573;50.948;11.600;2023-08-06T08:19:18;8.37;;;3.03;;
18881;SDS011;9573;50.948;11.600;2023-08-06T08:21:46;5.90;;;3.10;;
18881;SDS011;9573;50.948;11.600;2023-08-06T08:24:15;7.13;;;3.27;;
18881;SDS011;9573;50.948;11.600;2023-08-06T08:26:44;7.53;;;3.30;;
18881;SDS011;9573;50.948;11.600;2023-08-06T08:29:12;5.87;;;2.97;;
18881;SDS011;9573;50.948;11.600;2023-08-06T08:31:39;4.83;;;3.03;;
18881;SDS011;9573;50.948;11.600;2023-08-06T08:34:06;6.63;;;2.83;;
18881;SDS011;9573;50.948;11.600;2023-08-06T08:36:33;6.23;;;3.13;;
18881;SDS011;9573;50.948;11.600;2023-08-06T08:39:00;7.40;;;3.20;;
18881;SDS011;9573;50.948;11.600;2023-08-06T08:41:30;8.33;;;3.00;;
18881;SDS011;9573;50.948;11.600;2023-08-06T08:43:58;7.67;;;3.00;;
18881;SDS011;9573;50.948;11.600;2023-08-06T08:46:26;7.03;;;2.80;;
18881;SDS011;9573;50.948;11.600;2023-08-06T08:48:55;5.37;;;2.83;;
18881;SDS011;9573;50.948;11.600;2023-08-06T08:51:25;5.13;;;3.03;;
18881;SDS011;9573;50.948;11.600;2023-08-06T08:53:54;5.13;;;2.83;;
18881;SDS011;9573;50.948;11.600;2023-08-06T08:56:22;6.40;;;2.70;;
18881;SDS011;9573;50.948;11.600;2023-08-06T08:58:51;4.33;;;2.77;;
18881;SDS011;9573;50.948;11.600;2023-08-06T09:01:20;6.90;;;2.70;;
18881;SDS011;9573;50.948;11.600;2023-08-06T09:03:49;9.23;;;3.00;;
18881;SDS011;9573;50.948;11.600;2023-08-06T09:06:23;5.87;;;2.60;;
18881;SDS011;9573;50.948;11.600;2023-08-06T09:08:55;3.73;;;2.50;;
18881;SDS011;9573;50.948;11.600;2023-08-06T09:11:36;5.27;;;2.50;;
18881;SDS011;9573;50.948;11.600;2023-08-06T09:14:18;3.93;;;2.60;;
18881;SDS011;9573;50.948;11.600;2023-08-06T09:16:45;4.60;;;2.50;;
18881;SDS011;9573;50.948;11.600;2023-08-06T09:19:16;4.83;;;2.87;;
18881;SDS011;9573;50.948;11.600;2023-08-06T09:21:44;3.90;;;2.60;;
18881;SDS011;9573;50.948;11.600;2023-08-06T09:24:13;4.73;;;2.60;;
18881;SDS011;9573;50.948;11.600;2023-08-06T09:26:42;6.17;;;2.73;;
18881;SDS011;9573;50.948;11.600;2023-08-06T09:29:10;5.17;;;2.30;;
18881;SDS011;9573;50.948;11.600;2023-08-06T09:31:42;6.40;;;2.60;;
18881;SDS011;9573;50.948;11.600;2023-08-06T09:34:12;4.40;;;2.40;;
18881;SDS011;9573;50.948;11.600;2023-08-06T09:36:42;2.87;;;2.40;;
18881;SDS011;9573;50.948;11.600;2023-08-06T09:39:13;5.87;;;2.77;;
18881;SDS011;9573;50.948;11.600;2023-08-06T09:41:41;4.80;;;2.57;;
18881;SDS011;9573;50.948;11.600;2023-08-06T09:44:13;5.33;;;2.70;;
18881;SDS011;9573;50.948;11.600;2023-08-06T09:46:48;4.50;;;2.43;;
18881;SDS011;9573;50.948;11.600;2023-08-06T09:49:17;4.17;;;2.60;;
18881;SDS011;9573;50.948;11.600;2023-08-06T09:51:45;6.67;;;2.50;;
18881;SDS011;9573;50.948;11.600;2023-08-06T09:54:15;3.73;;;2.27;;
18881;SDS011;9573;50.948;11.600;2023-08-06T09:56:44;4.57;;;2.60;;
18881;SDS011;9573;50.948;11.600;2023-08-06T09:59:11;4.27;;;2.50;;
18881;SDS011;9573;50.948;11.600;2023-08-06T10:01:41;4.50;;;2.50;;
18881;SDS011;9573;50.948;11.600;2023-08-06T10:04:09;6.50;;;2.38;;
18881;SDS011;9573;50.948;11.600;2023-08-06T10:06:37;8.07;;;2.50;;
18881;SDS011;9573;50.948;11.600;2023-08-06T10:09:04;4.18;;;2.25;;
18881;SDS011;9573;50.948;11.600;2023-08-06T10:11:32;7.50;;;2.60;;
18881;SDS011;9573;50.948;11.600;2023-08-06T10:14:02;3.50;;;2.40;;
18881;SDS011;9573;50.948;11.600;2023-08-06T10:16:34;4.88;;;2.30;;
18881;SDS011;9573;50.948;11.600;2023-08-06T10:19:02;5.95;;;2.70;;
18881;SDS011;9573;50.948;11.600;2023-08-06T10:21:33;5.32;;;2.65;;
18881;SDS011;9573;50.948;11.600;2023-08-06T10:24:00;4.20;;;2.53;;
18881;SDS011;9573;50.948;11.600;2023-08-06T10:26:28;5.55;;;2.70;;
18881;SDS011;9573;50.948;11.600;2023-08-06T10:28:56;3.13;;;2.50;;
18881;SDS011;9573;50.948;11.600;2023-08-06T10:34:21;6.57;;;2.50;;
18881;SDS011;9573;50.948;11.600;2023-08-06T10:36:49;2.90;;;2.45;;
18881;SDS011;9573;50.948;11.600;2023-08-06T10:39:20;4.28;;;2.50;;
18881;SDS011;9573;50.948;11.600;2023-08-06T10:41:47;3.00;;;2.40;;
18881;SDS011;9573;50.948;11.600;2023-08-06T10:44:15;4.85;;;2.50;;
18881;SDS011;9573;50.948;11.600;2023-08-06T10:46:43;5.93;;;2.40;;
18881;SDS011;9573;50.948;11.600;2023-08-06T10:49:15;6.00;;;2.60;;
18881;SDS011;9573;50.948;11.600;2023-08-06T10:51:45;4.13;;;2.50;;
18881;SDS011;9573;50.948;11.600;2023-08-06T10:54:14;6.03;;;2.63;;
18881;SDS011;9573;50.948;11.600;2023-08-06T10:56:41;7.13;;;3.13;;
18881;SDS011;9573;50.948;11.600;2023-08-06T10:59:09;3.97;;;2.53;;
18881;SDS011;9573;50.948;11.600;2023-08-06T11:01:37;6.30;;;2.77;;
18881;SDS011;9573;50.948;11.600;2023-08-06T11:04:05;4.43;;;2.53;;
18881;SDS011;9573;50.948;11.600;2023-08-06T11:06:32;6.70;;;2.90;;
18881;SDS011;9573;50.948;11.600;2023-08-06T11:08:59;6.37;;;2.70;;
18881;SDS011;9573;50.948;11.600;2023-08-06T11:11:29;5.13;;;2.60;;
18881;SDS011;9573;50.948;11.600;2023-08-06T11:13:56;10.60;;;3.20;;
18881;SDS011;9573;50.948;11.600;2023-08-06T11:16:23;6.53;;;2.70;;
18881;SDS011;9573;50.948;11.600;2023-08-06T11:18:51;6.70;;;2.60;;
18881;SDS011;9573;50.948;11.600;2023-08-06T11:21:19;3.10;;;2.37;;
18881;SDS011;9573;50.948;11.600;2023-08-06T11:23:47;6.73;;;2.60;;
18881;SDS011;9573;50.948;11.600;2023-08-06T11:26:18;5.97;;;2.67;;
18881;SDS011;9573;50.948;11.600;2023-08-06T11:28:47;3.10;;;2.40;;
18881;SDS011;9573;50.948;11.600;2023-08-06T11:31:18;3.92;;;2.40;;
18881;SDS011;9573;50.948;11.600;2023-08-06T11:33:46;4.43;;;2.25;;
18881;SDS011;9573;50.948;11.600;2023-08-06T11:36:14;3.10;;;2.17;;
18881;SDS011;9573;50.948;11.600;2023-08-06T11:38:42;3.38;;;2.17;;
18881;SDS011;9573;50.948;11.600;2023-08-06T11:41:09;3.97;;;2.28;;
18881;SDS011;9573;50.948;11.600;2023-08-06T11:43:38;4.78;;;2.60;;
18881;SDS011;9573;50.948;11.600;2023-08-06T11:46:06;4.70;;;2.40;;
18881;SDS011;9573;50.948;11.600;2023-08-06T11:48:50;5.65;;;2.20;;
18881;SDS011;9573;50.948;11.600;2023-08-06T11:51:18;6.25;;;2.50;;
18881;SDS011;9573;50.948;11.600;2023-08-06T11:53:48;5.70;;;2.47;;
18881;SDS011;9573;50.948;11.600;2023-08-06T11:56:16;3.67;;;2.53;;
18881;SDS011;9573;50.948;11.600;2023-08-06T11:58:43;4.82;;;2.70;;
18881;SDS011;9573;50.948;11.600;2023-08-06T12:01:12;5.30;;;2.80;;
18881;SDS011;9573;50.948;11.600;2023-08-06T12:03:40;7.03;;;2.60;;
18881;SDS011;9573;50.948;11.600;2023-08-06T12:06:08;6.20;;;2.60;;
18881;SDS011;9573;50.948;11.600;2023-08-06T12:08:35;6.27;;;2.70;;
18881;SDS011;9573;50.948;11.600;2023-08-06T12:11:03;5.07;;;2.60;;
18881;SDS011;9573;50.948;11.600;2023-08-06T12:13:30;4.33;;;2.33;;
18881;SDS011;9573;50.948;11.600;2023-08-06T12:15:57;4.67;;;2.50;;
18881;SDS011;9573;50.948;11.600;2023-08-06T12:18:26;5.73;;;2.70;;
18881;SDS011;9573;50.948;11.600;2023-08-06T12:20:53;3.35;;;2.33;;
18881;SDS011;9573;50.948;11.600;2023-08-06T12:23:21;4.20;;;2.60;;
18881;SDS011;9573;50.948;11.600;2023-08-06T12:25:49;5.33;;;2.57;;
18881;SDS011;9573;50.948;11.600;2023-08-06T12:28:16;4.13;;;2.43;;
18881;SDS011;9573;50.948;11.600;2023-08-06T12:30:43;4.83;;;2.37;;
18881;SDS011;9573;50.948;11.600;2023-08-06T12:33:10;5.40;;;2.43;;
18881;SDS011;9573;50.948;11.600;2023-08-06T12:35:39;5.50;;;2.30;;
18881;SDS011;9573;50.948;11.600;2023-08-06T12:38:06;9.03;;;2.57;;
18881;SDS011;9573;50.948;11.600;2023-08-06T12:40:33;6.93;;;2.60;;
18881;SDS011;9573;50.948;11.600;2023-08-06T12:43:00;8.47;;;3.07;;
18881;SDS011;9573;50.948;11.600;2023-08-06T12:45:27;6.70;;;3.00;;
18881;SDS011;9573;50.948;11.600;2023-08-06T12:47:55;9.23;;;3.00;;
18881;SDS011;9573;50.948;11.600;2023-08-06T12:50:22;14.00;;;3.40;;
18881;SDS011;9573;50.948;11.600;2023-08-06T12:52:50;14.43;;;4.20;;
18881;SDS011;9573;50.948;11.600;2023-08-06T12:55:18;11.70;;;3.67;;
18881;SDS011;9573;50.948;11.600;2023-08-06T12:57:45;10.73;;;3.77;;
18881;SDS011;9573;50.948;11.600;2023-08-06T13:00:12;10.90;;;3.63;;
18881;SDS011;9573;50.948;11.600;2023-08-06T13:02:39;8.10;;;3.53;;
18881;SDS011;9573;50.948;11.600;2023-08-06T13:05:07;9.53;;;3.57;;
18881;SDS011;9573;50.948;11.600;2023-08-06T13:07:35;5.83;;;3.23;;
18881;SDS011;9573;50.948;11.600;2023-08-06T13:10:03;7.87;;;3.00;;
18881;SDS011;9573;50.948;11.600;2023-08-06T13:12:32;7.10;;;3.00;;
18881;SDS011;9573;50.948;11.600;2023-08-06T13:14:59;13.17;;;3.40;;
18881;SDS011;9573;50.948;11.600;2023-08-06T13:17:26;9.60;;;2.97;;
18881;SDS011;9573;50.948;11.600;2023-08-06T13:19:53;5.00;;;2.90;;
18881;SDS011;9573;50.948;11.600;2023-08-06T13:22:20;5.63;;;2.60;;
18881;SDS011;9573;50.948;11.600;2023-08-06T13:24:48;4.70;;;2.70;;
18881;SDS011;9573;50.948;11.600;2023-08-06T13:27:16;3.63;;;2.43;;
18881;SDS011;9573;50.948;11.600;2023-08-06T13:29:43;6.23;;;2.80;;
18881;SDS011;9573;50.948;11.600;2023-08-06T13:32:10;3.67;;;2.60;;
18881;SDS011;9573;50.948;11.600;2023-08-06T13:34:37;6.60;;;2.77;;
18881;SDS011;9573;50.948;11.600;2023-08-06T13:37:05;4.67;;;2.73;;
18881;SDS011;9573;50.948;11.600;2023-08-06T13:39:32;5.93;;;2.73;;
18881;SDS011;9573;50.948;11.600;2023-08-06T13:41:59;7.10;;;2.67;;
18881;SDS011;9573;50.948;11.600;2023-08-06T13:44:27;4.53;;;2.60;;
18881;SDS011;9573;50.948;11.600;2023-08-06T13:46:55;4.93;;;2.67;;
18881;SDS011;9573;50.948;11.600;2023-08-06T13:49:22;4.77;;;2.50;;
18881;SDS011;9573;50.948;11.600;2023-08-06T13:51:49;7.83;;;2.60;;
18881;SDS011;9573;50.948;11.600;2023-08-06T13:54:16;4.53;;;2.60;;
18881;SDS011;9573;50.948;11.600;2023-08-06T13:56:45;9.23;;;2.80;;
18881;SDS011;9573;50.948;11.600;2023-08-06T13:59:12;6.90;;;2.73;;
18881;SDS011;9573;50.948;11.600;2023-08-06T14:01:41;7.60;;;2.97;;
18881;SDS011;9573;50.948;11.600;2023-08-06T14:04:08;5.03;;;2.50;;
18881;SDS011;9573;50.948;11.600;2023-08-06T14:06:36;8.83;;;2.83;;
18881;SDS011;9573;50.948;11.600;2023-08-06T14:09:03;9.83;;;3.00;;
18881;SDS011;9573;50.948;11.600;2023-08-06T14:11:30;11.10;;;3.03;;
18881;SDS011;9573;50.948;11.600;2023-08-06T14:13:57;6.13;;;2.90;;
18881;SDS011;9573;50.948;11.600;2023-08-06T14:16:25;6.27;;;3.10;;
18881;SDS011;9573;50.948;11.600;2023-08-06T14:18:53;4.67;;;2.50;;
18881;SDS011;9573;50.948;11.600;2023-08-06T14:21:21;9.77;;;3.30;;
18881;SDS011;9573;50.948;11.600;2023-08-06T14:23:48;8.13;;;3.10;;
18881;SDS011;9573;50.948;11.600;2023-08-06T14:26:15;7.67;;;3.03;;
18881;SDS011;9573;50.948;11.600;2023-08-06T14:28:42;6.67;;;2.93;;
18881;SDS011;9573;50.948;11.600;2023-08-06T14:31:09;9.07;;;3.30;;
18881;SDS011;9573;50.948;11.600;2023-08-06T14:33:37;6.13;;;2.90;;
18881;SDS011;9573;50.948;11.600;2023-08-06T14:36:06;8.07;;;3.10;;
18881;SDS011;9573;50.948;11.600;2023-08-06T14:38:33;8.23;;;3.23;;
18881;SDS011;9573;50.948;11.600;2023-08-06T14:41:00;6.97;;;3.20;;
18881;SDS011;9573;50.948;11.600;2023-08-06T14:43:27;6.10;;;2.97;;
18881;SDS011;9573;50.948;11.600;2023-08-06T14:45:54;4.73;;;2.60;;
18881;SDS011;9573;50.948;11.600;2023-08-06T14:48:21;6.70;;;2.80;;
18881;SDS011;9573;50.948;11.600;2023-08-06T14:50:49;5.77;;;2.63;;
18881;SDS011;9573;50.948;11.600;2023-08-06T14:53:17;4.73;;;2.53;;